Time;durP1;ratioP1;P1;durP2;ratioP2;P2;SDS_P1;SDS_P2;PMS_P1;PMS_P2;Temp;Humidity;BMP_temperature;BMP_pressure;BME280_temperature;BME280_humidity;BME280_pressure;Samples;Min_cycle;Max_cycle;Signal;HPM_P1;HPM_P2
2021/08/29 00:00:18;;;;;;;8.70;2.45;;;15.00;99.90;;;;;;4954088;28;20086;-69
2021/08/29 00:02:44;;;;;;;9.15;2.55;;;15.00;99.90;;;;;;4952513;28;20082;-69
2021/08/29 00:05:10;;;;;;;9.13;2.50;;;15.00;99.90;;;;;;4952426;29;20027;-70
2021/08/29 00:07:35;;;;;;;8.80;2.50;;;15.00;99.90;;;;;;4952972;28;20047;-70
2021/08/29 00:10:01;;;;;;;7.68;2.60;;;15.00;99.90;;;;;;4953689;28;20042;-70
2021/08/29 00:12:27;;;;;;;9.27;3.03;;;15.00;99.90;;;;;;4953216;28;20038;-70
2021/08/29 00:14:53;;;;;;;9.27;2.47;;;15.00;99.90;;;;;;4954316;28;20050;-69
2021/08/29 00:17:18;;;;;;;6.53;2.20;;;15.10;99.90;;;;;;4951916;28;20094;-70
2021/08/29 00:19:44;;;;;;;8.27;2.35;;;15.10;99.90;;;;;;4952233;29;20035;-69
2021/08/29 00:22:09;;;;;;;6.00;2.35;;;15.10;99.90;;;;;;4952120;28;20031;-70
2021/08/29 00:24:35;;;;;;;7.07;1.77;;;15.10;99.90;;;;;;4949547;28;20089;-69
2021/08/29 00:27:00;;;;;;;9.20;3.10;;;15.10;99.90;;;;;;4953172;28;20042;-69
2021/08/29 00:29:26;;;;;;;5.72;2.22;;;15.10;99.90;;;;;;4950987;29;20390;-70
2021/08/29 00:31:51;;;;;;;9.43;2.25;;;15.20;99.90;;;;;;4952555;28;20047;-70
2021/08/29 00:34:17;;;;;;;10.10;2.63;;;15.10;99.90;;;;;;4953161;29;20046;-70
2021/08/29 00:36:42;;;;;;;7.45;2.35;;;15.10;99.90;;;;;;4953125;28;20118;-70
2021/08/29 00:39:08;;;;;;;7.00;2.95;;;15.20;99.90;;;;;;4951989;28;20419;-70
2021/08/29 00:41:34;;;;;;;5.57;2.65;;;15.20;99.90;;;;;;4950440;28;20440;-69
2021/08/29 00:44:01;;;;;;;6.70;1.90;;;15.20;99.90;;;;;;4953625;28;20170;-70
2021/08/29 00:46:26;;;;;;;6.63;1.73;;;15.20;99.90;;;;;;4952714;29;20660;-70
2021/08/29 00:48:52;;;;;;;6.85;1.92;;;15.30;99.90;;;;;;4952349;28;20039;-70
2021/08/29 00:51:18;;;;;;;7.22;2.72;;;15.30;99.90;;;;;;4950848;28;20452;-70
2021/08/29 00:53:54;;;;;;;11.90;2.28;;;15.30;99.90;;;;;;4950764;28;20115;-70
2021/08/29 00:56:21;;;;;;;7.82;2.58;;;15.30;99.90;;;;;;4952784;28;20027;-70
2021/08/29 00:58:48;;;;;;;5.10;1.80;;;15.30;99.90;;;;;;4954121;28;20055;-70
2021/08/29 01:01:18;;;;;;;7.97;2.30;;;15.30;99.90;;;;;;4951386;29;20032;-70
2021/08/29 01:03:47;;;;;;;10.15;2.63;;;15.30;99.90;;;;;;4952053;28;20051;-70
2021/08/29 01:06:22;;;;;;;7.75;2.33;;;15.30;99.90;;;;;;4951478;28;20039;-70
2021/08/29 01:08:54;;;;;;;8.73;2.50;;;15.30;99.90;;;;;;4951437;29;20028;-70
2021/08/29 01:11:25;;;;;;;6.40;2.35;;;15.40;99.90;;;;;;4951928;28;20028;-70
2021/08/29 01:13:57;;;;;;;8.43;2.33;;;15.40;99.90;;;;;;4934525;29;20486;-70
2021/08/29 01:16:23;;;;;;;6.65;1.90;;;15.40;99.90;;;;;;4950928;29;20035;-70
2021/08/29 01:18:54;;;;;;;7.55;2.53;;;15.40;99.90;;;;;;4947320;28;20106;-70
2021/08/29 01:21:23;;;;;;;8.02;2.45;;;15.40;99.90;;;;;;4951314;28;20094;-69
2021/08/29 01:23:57;;;;;;;7.18;2.42;;;15.40;99.90;;;;;;4948831;28;20474;-70
2021/08/29 01:26:43;;;;;;;7.97;3.03;;;15.40;99.90;;;;;;4951868;28;20480;-70
2021/08/29 01:29:11;;;;;;;6.13;2.30;;;15.40;99.90;;;;;;4951411;29;20027;-69
2021/08/29 01:31:39;;;;;;;8.18;2.58;;;15.40;99.90;;;;;;4951356;28;20126;-69
2021/08/29 01:34:08;;;;;;;12.68;2.83;;;15.40;99.90;;;;;;4951263;28;20050;-70
2021/08/29 01:36:36;;;;;;;9.38;2.58;;;15.50;99.90;;;;;;4950884;29;20097;-69
2021/08/29 01:39:03;;;;;;;8.35;2.17;;;15.40;99.90;;;;;;4950992;28;20087;-69
2021/08/29 01:41:32;;;;;;;7.40;2.15;;;15.50;99.90;;;;;;4949188;28;20099;-70
2021/08/29 01:43:58;;;;;;;5.90;2.97;;;15.40;99.90;;;;;;4954666;29;20036;-69
2021/08/29 01:46:24;;;;;;;9.02;2.78;;;15.50;99.90;;;;;;4955565;29;20384;-69
2021/08/29 01:48:50;;;;;;;7.63;2.15;;;15.40;99.90;;;;;;4955829;28;20019;-70
2021/08/29 01:51:16;;;;;;;8.13;2.50;;;15.50;99.90;;;;;;4955179;28;20504;-69
2021/08/29 01:53:42;;;;;;;7.53;2.50;;;15.50;99.90;;;;;;4953908;28;20040;-69
2021/08/29 01:56:07;;;;;;;11.70;2.92;;;15.50;99.90;;;;;;4954889;28;20031;-70
2021/08/29 01:58:33;;;;;;;12.35;3.28;;;15.50;99.90;;;;;;4956294;29;20079;-69
2021/08/29 02:01:02;;;;;;;6.95;2.72;;;15.50;99.90;;;;;;4954917;28;20034;-70
2021/08/29 02:03:30;;;;;;;9.50;2.55;;;15.50;99.90;;;;;;4955878;29;20027;-70
2021/08/29 02:06:18;;;;;;;11.13;2.50;;;15.50;99.90;;;;;;4954350;28;20031;-70
2021/08/29 02:08:58;;;;;;;8.40;2.83;;;15.50;99.90;;;;;;4987872;28;20032;-70
2021/08/29 02:11:27;;;;;;;9.05;2.45;;;15.50;99.90;;;;;;4955629;28;20031;-70
2021/08/29 02:13:56;;;;;;;9.50;3.17;;;15.50;99.90;;;;;;4956256;28;20066;-69
2021/08/29 02:16:22;;;;;;;8.73;2.47;;;15.50;99.90;;;;;;4953189;28;20034;-70
2021/08/29 02:18:52;;;;;;;8.57;2.15;;;15.50;99.90;;;;;;4954311;28;20082;-70
2021/08/29 02:21:19;;;;;;;6.78;2.58;;;15.50;99.90;;;;;;4953824;28;20043;-70
2021/08/29 02:23:46;;;;;;;9.57;2.70;;;15.50;99.90;;;;;;4952942;28;20042;-70
2021/08/29 02:26:13;;;;;;;11.23;2.67;;;15.60;99.90;;;;;;4955455;29;20079;-70
2021/08/29 02:28:39;;;;;;;7.38;2.30;;;15.50;99.90;;;;;;4953237;28;20186;-70
2021/08/29 02:31:05;;;;;;;9.63;2.45;;;15.50;99.90;;;;;;4955401;28;20505;-70
2021/08/29 02:33:30;;;;;;;8.27;2.55;;;15.50;99.90;;;;;;4953708;28;20501;-70
2021/08/29 02:35:58;;;;;;;7.35;2.45;;;15.50;99.90;;;;;;4955296;29;20028;-70
2021/08/29 02:38:23;;;;;;;13.60;2.97;;;15.50;99.90;;;;;;4955793;28;20035;-70
2021/08/29 02:40:50;;;;;;;10.88;3.20;;;15.50;99.90;;;;;;4956237;28;20389;-70
2021/08/29 02:43:19;;;;;;;13.13;3.63;;;15.50;99.90;;;;;;4953544;28;20494;-70
2021/08/29 02:45:45;;;;;;;7.82;2.42;;;15.50;99.90;;;;;;4955233;29;20035;-69
2021/08/29 02:48:11;;;;;;;4.85;2.80;;;15.50;99.90;;;;;;4954991;28;20045;-69
2021/08/29 02:50:38;;;;;;;8.43;2.65;;;15.60;99.90;;;;;;4972408;28;20364;-70
2021/08/29 02:53:03;;;;;;;7.65;2.70;;;15.50;99.90;;;;;;4951744;28;20105;-70
2021/08/29 02:55:30;;;;;;;10.68;2.65;;;15.50;99.90;;;;;;4954635;29;20071;-69
2021/08/29 02:58:04;;;;;;;7.72;2.80;;;15.50;99.90;;;;;;4953951;28;20162;-70
2021/08/29 03:00:31;;;;;;;10.50;2.50;;;15.50;99.90;;;;;;4953793;28;20474;-70
2021/08/29 03:02:56;;;;;;;6.07;2.42;;;15.50;99.90;;;;;;4953995;28;20170;-70
2021/08/29 03:05:23;;;;;;;8.15;2.67;;;15.50;99.90;;;;;;4955209;28;20526;-70
2021/08/29 03:07:49;;;;;;;9.70;3.10;;;15.60;99.90;;;;;;4954648;28;20425;-70
2021/08/29 03:10:15;;;;;;;6.22;2.80;;;15.50;99.90;;;;;;4954821;28;20027;-70
2021/08/29 03:12:41;;;;;;;6.90;2.35;;;15.60;99.90;;;;;;4945002;29;20117;-70
2021/08/29 03:15:07;;;;;;;9.50;2.80;;;15.50;99.90;;;;;;4954628;28;20459;-69
2021/08/29 03:17:33;;;;;;;10.05;3.20;;;15.50;99.90;;;;;;4953415;29;20033;-70
2021/08/29 03:20:00;;;;;;;8.07;2.60;;;15.60;99.90;;;;;;4951736;28;20023;-70
2021/08/29 03:22:26;;;;;;;11.40;3.25;;;15.60;99.90;;;;;;4952195;28;20053;-70
2021/08/29 03:24:53;;;;;;;8.25;2.60;;;15.50;99.90;;;;;;4951354;29;20086;-70
2021/08/29 03:27:19;;;;;;;10.82;2.80;;;15.60;99.90;;;;;;4953853;28;20486;-70
2021/08/29 03:29:45;;;;;;;11.20;2.65;;;15.60;99.90;;;;;;4953983;28;20039;-70
2021/08/29 03:32:11;;;;;;;6.95;2.28;;;15.60;99.90;;;;;;4954883;28;20043;-70
2021/08/29 03:34:37;;;;;;;7.38;3.05;;;15.60;99.90;;;;;;4952664;28;20043;-69
2021/08/29 03:37:04;;;;;;;7.07;3.22;;;15.50;99.90;;;;;;4954547;28;20379;-69
2021/08/29 03:39:32;;;;;;;8.85;3.10;;;15.60;99.90;;;;;;4954803;29;20490;-69
2021/08/29 03:41:59;;;;;;;7.53;2.75;;;15.60;99.90;;;;;;4954269;29;20042;-69
2021/08/29 03:44:25;;;;;;;22.40;4.30;;;15.60;99.90;;;;;;4951833;28;20031;-69
2021/08/29 03:46:52;;;;;;;12.35;3.10;;;15.60;99.90;;;;;;4954216;28;20028;-69
2021/08/29 03:49:18;;;;;;;7.38;2.60;;;15.50;99.90;;;;;;4952116;28;20038;-69
2021/08/29 03:51:45;;;;;;;6.40;2.22;;;15.60;99.90;;;;;;4950830;28;20448;-69
2021/08/29 03:54:13;;;;;;;5.57;2.13;;;15.60;99.90;;;;;;4952551;28;20027;-69
2021/08/29 03:56:39;;;;;;;6.00;3.00;;;15.60;99.90;;;;;;4952856;28;20086;-69
2021/08/29 03:59:05;;;;;;;5.10;2.17;;;15.50;99.90;;;;;;4954777;28;20024;-69
2021/08/29 04:01:31;;;;;;;7.78;2.72;;;15.60;99.90;;;;;;4953190;28;20101;-69
2021/08/29 04:03:57;;;;;;;8.48;2.85;;;15.60;99.90;;;;;;4953271;28;20031;-69
2021/08/29 04:06:25;;;;;;;9.85;2.25;;;15.60;99.90;;;;;;4951889;28;20031;-69
2021/08/29 04:08:54;;;;;;;13.85;3.13;;;15.60;99.90;;;;;;4952586;28;20589;-69
2021/08/29 04:11:28;;;;;;;5.45;2.38;;;15.60;99.90;;;;;;4952391;28;20055;-69
2021/08/29 04:13:55;;;;;;;8.52;2.67;;;15.60;99.90;;;;;;4952938;28;20042;-70
2021/08/29 04:16:21;;;;;;;5.90;2.40;;;15.60;99.90;;;;;;4952819;28;20118;-70
2021/08/29 04:18:50;;;;;;;8.27;2.40;;;15.60;99.90;;;;;;4953660;28;20138;-70
2021/08/29 04:21:18;;;;;;;11.18;2.47;;;15.60;99.90;;;;;;4953269;29;20359;-70
2021/08/29 04:23:44;;;;;;;8.55;3.17;;;15.60;99.90;;;;;;4950576;29;20019;-70
2021/08/29 04:26:10;;;;;;;6.25;2.22;;;15.60;99.90;;;;;;4951410;29;20482;-70
2021/08/29 04:28:37;;;;;;;6.30;2.28;;;15.60;99.90;;;;;;4953333;29;20031;-70
2021/08/29 04:31:10;;;;;;;7.70;2.40;;;15.60;99.90;;;;;;4952542;28;20490;-70
2021/08/29 04:33:36;;;;;;;;;;;15.60;99.90;;;;;;4954133;29;20418;-70
2021/08/29 04:36:09;;;;;;;6.72;2.15;;;15.60;99.90;;;;;;4951849;29;20361;-70
2021/08/29 04:38:36;;;;;;;7.05;2.30;;;15.60;99.90;;;;;;4951561;28;20231;-70
2021/08/29 04:41:02;;;;;;;5.07;2.35;;;15.60;99.90;;;;;;4953295;28;20038;-70
2021/08/29 04:43:27;;;;;;;7.20;2.22;;;15.60;99.90;;;;;;4953523;28;20031;-70
2021/08/29 04:45:53;;;;;;;9.18;2.35;;;15.60;99.90;;;;;;4952746;28;20106;-70
2021/08/29 04:48:19;;;;;;;9.68;2.30;;;15.60;99.90;;;;;;4951562;29;20032;-70
2021/08/29 04:50:44;;;;;;;11.48;2.35;;;15.60;99.90;;;;;;4952721;28;20073;-70
2021/08/29 04:53:10;;;;;;;8.02;2.13;;;15.60;99.90;;;;;;4951261;29;20026;-70
2021/08/29 04:55:36;;;;;;;7.40;2.55;;;15.60;99.90;;;;;;4951149;28;20098;-71
2021/08/29 04:58:01;;;;;;;7.18;2.13;;;15.60;99.90;;;;;;4954309;28;20579;-70
2021/08/29 05:00:27;;;;;;;6.25;2.65;;;15.60;99.90;;;;;;4953321;28;20031;-71
2021/08/29 05:02:52;;;;;;;7.47;2.65;;;15.60;99.90;;;;;;4951252;28;20039;-70
2021/08/29 05:05:18;;;;;;;6.80;2.53;;;15.60;99.90;;;;;;4949680;28;20027;-70
2021/08/29 05:07:44;;;;;;;7.43;2.70;;;15.60;99.90;;;;;;4950671;28;20027;-71
2021/08/29 05:10:09;;;;;;;4.93;1.80;;;15.60;99.90;;;;;;4944840;28;20043;-70
2021/08/29 05:12:35;;;;;;;6.60;1.63;;;15.60;99.90;;;;;;4949560;28;20557;-70
2021/08/29 05:15:01;;;;;;;5.25;1.83;;;15.60;99.90;;;;;;4966575;28;20036;-71
2021/08/29 05:17:26;;;;;;;6.65;2.35;;;15.60;99.90;;;;;;4963088;28;20086;-71
2021/08/29 05:19:52;;;;;;;6.18;2.15;;;15.60;99.90;;;;;;4949517;28;20032;-71
2021/08/29 05:22:17;;;;;;;8.65;2.88;;;15.70;99.90;;;;;;4956787;28;20105;-70
2021/08/29 05:24:43;;;;;;;7.05;2.15;;;15.70;99.90;;;;;;4956425;29;20370;-70
2021/08/29 05:27:08;;;;;;;5.82;1.80;;;15.70;99.90;;;;;;4954854;28;20023;-70
2021/08/29 05:29:34;;;;;;;6.72;1.70;;;15.70;99.90;;;;;;4952063;28;20028;-71
2021/08/29 05:31:59;;;;;;;4.05;1.92;;;15.70;99.90;;;;;;4955101;28;20075;-70
2021/08/29 05:34:25;;;;;;;9.48;2.20;;;15.70;99.90;;;;;;4956147;28;20035;-70
2021/08/29 05:36:50;;;;;;;6.97;1.73;;;15.70;99.90;;;;;;4954496;28;20385;-71
2021/08/29 05:39:16;;;;;;;9.15;2.65;;;15.80;99.90;;;;;;4954455;28;20031;-70
2021/08/29 05:41:41;;;;;;;11.13;2.22;;;15.80;99.90;;;;;;4955396;28;20039;-70
2021/08/29 05:44:07;;;;;;;9.93;2.17;;;15.80;99.90;;;;;;4953410;28;20031;-70
2021/08/29 05:46:33;;;;;;;8.63;2.25;;;15.80;99.90;;;;;;4948775;28;20038;-70
2021/08/29 05:48:58;;;;;;;7.47;1.60;;;15.90;99.90;;;;;;4950493;28;20034;-70
2021/08/29 05:51:23;;;;;;;8.82;1.95;;;16.00;99.90;;;;;;4953037;28;20030;-70
2021/08/29 05:53:49;;;;;;;11.15;2.30;;;16.10;99.90;;;;;;4966262;28;20031;-70
2021/08/29 05:56:14;;;;;;;10.65;1.95;;;16.10;99.90;;;;;;4946767;28;20468;-70
2021/08/29 05:58:40;;;;;;;11.20;2.55;;;16.10;99.90;;;;;;4952800;29;20031;-70
2021/08/29 06:01:06;;;;;;;12.13;2.33;;;16.20;99.90;;;;;;4955097;28;20131;-70
2021/08/29 06:03:31;;;;;;;7.10;1.90;;;16.20;99.90;;;;;;4948183;28;20031;-70
2021/08/29 06:05:58;;;;;;;10.07;2.13;;;16.30;99.90;;;;;;4949565;28;20019;-70
2021/08/29 06:08:23;;;;;;;9.57;2.08;;;16.30;99.90;;;;;;4950708;29;20397;-70
2021/08/29 06:10:49;;;;;;;8.93;2.42;;;16.30;99.90;;;;;;4956671;29;20028;-70
2021/08/29 06:13:14;;;;;;;10.93;2.25;;;16.30;99.90;;;;;;4950499;28;20023;-69
2021/08/29 06:15:40;;;;;;;12.65;2.28;;;16.40;99.90;;;;;;4948437;28;20027;-70
2021/08/29 06:18:06;;;;;;;10.52;1.73;;;16.40;99.90;;;;;;4947278;28;20445;-69
2021/08/29 06:20:31;;;;;;;10.85;1.83;;;16.40;99.90;;;;;;4946340;28;20027;-68
2021/08/29 06:22:57;;;;;;;8.35;1.63;;;16.30;99.90;;;;;;4948662;28;20035;-69
2021/08/29 06:25:22;;;;;;;9.80;2.60;;;16.40;99.90;;;;;;4944311;28;20489;-69
2021/08/29 06:27:49;;;;;;;11.85;2.17;;;16.40;99.90;;;;;;4939721;28;20019;-69
2021/08/29 06:30:15;;;;;;;8.40;1.70;;;16.40;99.90;;;;;;4963032;28;20115;-68
2021/08/29 06:32:40;;;;;;;12.18;2.10;;;16.40;99.90;;;;;;4950266;28;20059;-69
2021/08/29 06:35:06;;;;;;;10.95;1.83;;;16.40;99.90;;;;;;4950360;28;20032;-69
2021/08/29 06:37:32;;;;;;;9.38;1.50;;;16.40;99.90;;;;;;4948938;28;20031;-68
2021/08/29 06:39:57;;;;;;;6.78;1.30;;;16.40;99.90;;;;;;4949699;28;20039;-69
2021/08/29 06:42:23;;;;;;;16.02;3.40;;;16.40;99.90;;;;;;4947551;28;20031;-69
2021/08/29 06:44:48;;;;;;;10.60;1.85;;;16.40;99.90;;;;;;4949606;28;20755;-69
2021/08/29 06:47:14;;;;;;;11.43;1.67;;;16.40;99.90;;;;;;4949766;28;20682;-70
2021/08/29 06:49:39;;;;;;;10.05;1.23;;;16.40;99.90;;;;;;4949742;28;20058;-70
2021/08/29 06:52:05;;;;;;;8.02;1.63;;;16.40;99.90;;;;;;4946017;29;20053;-68
2021/08/29 06:54:31;;;;;;;8.38;1.50;;;16.40;99.90;;;;;;4949285;29;20063;-70
2021/08/29 06:56:56;;;;;;;11.07;1.98;;;16.40;99.90;;;;;;4948593;29;20031;-68
2021/08/29 06:59:22;;;;;;;11.20;1.35;;;16.40;99.90;;;;;;4946217;28;20027;-69
2021/08/29 07:01:47;;;;;;;5.10;1.40;;;16.50;99.90;;;;;;4952818;28;20031;-69
2021/08/29 07:04:13;;;;;;;7.18;2.13;;;16.50;99.90;;;;;;4951732;28;20541;-69
2021/08/29 07:06:38;;;;;;;11.23;1.45;;;16.50;99.90;;;;;;4957028;28;20039;-69
2021/08/29 07:09:04;;;;;;;7.40;1.27;;;16.60;99.90;;;;;;4963935;28;20031;-70
2021/08/29 07:11:29;;;;;;;10.07;1.65;;;16.60;99.90;;;;;;4966769;28;20078;-69
2021/08/29 07:13:55;;;;;;;9.18;1.90;;;16.60;99.90;;;;;;4970801;28;20508;-69
2021/08/29 07:16:21;;;;;;;12.32;2.03;;;16.60;99.90;;;;;;4956257;28;20035;-69
2021/08/29 07:18:46;;;;;;;7.05;1.38;;;16.70;99.90;;;;;;4954618;28;20081;-70
2021/08/29 07:21:12;;;;;;;8.50;1.67;;;16.70;99.90;;;;;;4970227;28;20106;-70
2021/08/29 07:23:37;;;;;;;8.85;1.20;;;16.80;99.90;;;;;;4974631;28;20031;-70
2021/08/29 07:26:03;;;;;;;6.32;1.35;;;16.80;99.90;;;;;;4958906;28;20038;-69
2021/08/29 07:28:29;;;;;;;9.00;1.45;;;16.90;99.90;;;;;;4953347;28;20034;-69
2021/08/29 07:30:55;;;;;;;13.77;1.50;;;16.90;99.90;;;;;;4953767;28;20466;-69
2021/08/29 07:33:20;;;;;;;7.03;1.52;;;17.00;99.90;;;;;;4954796;28;20055;-70
2021/08/29 07:35:46;;;;;;;9.70;1.75;;;17.10;99.90;;;;;;4954298;29;20035;-69
2021/08/29 07:38:11;;;;;;;9.10;1.55;;;17.10;99.90;;;;;;4955307;28;20049;-70
2021/08/29 07:40:37;;;;;;;14.38;1.88;;;17.20;99.90;;;;;;4952301;28;20185;-69
2021/08/29 07:43:02;;;;;;;10.05;2.45;;;17.20;99.80;;;;;;4949927;28;20089;-70
2021/08/29 07:45:28;;;;;;;6.95;1.55;;;17.20;99.70;;;;;;4953143;28;20039;-70
2021/08/29 07:47:54;;;;;;;8.07;1.45;;;17.20;99.70;;;;;;4955109;28;20023;-70
2021/08/29 07:50:22;;;;;;;12.80;1.70;;;17.20;99.70;;;;;;4954332;28;20038;-70
2021/08/29 07:52:48;;;;;;;9.32;1.35;;;17.20;99.80;;;;;;4968190;28;20511;-70
2021/08/29 07:55:13;;;;;;;9.93;1.45;;;17.10;99.70;;;;;;4954145;28;20031;-70
2021/08/29 07:57:39;;;;;;;7.70;1.40;;;17.10;99.80;;;;;;4952759;28;20114;-70
2021/08/29 08:00:05;;;;;;;7.18;1.20;;;17.10;99.80;;;;;;4953365;28;20027;-70
2021/08/29 08:02:31;;;;;;;13.70;1.45;;;17.10;99.90;;;;;;4953703;28;20114;-71
2021/08/29 08:04:56;;;;;;;8.05;1.20;;;17.00;99.90;;;;;;4952221;28;20456;-70
2021/08/29 08:07:22;;;;;;;11.18;1.25;;;17.00;99.90;;;;;;4951196;28;20031;-69
2021/08/29 08:09:48;;;;;;;9.38;1.50;;;17.00;99.90;;;;;;4952679;28;20114;-69
2021/08/29 08:12:13;;;;;;;10.18;1.50;;;17.00;99.90;;;;;;4953142;29;20437;-69
2021/08/29 08:14:39;;;;;;;5.60;1.10;;;16.90;99.90;;;;;;4954301;28;20027;-64
2021/08/29 08:17:05;;;;;;;12.55;1.83;;;16.80;99.90;;;;;;4951810;28;20031;-64
2021/08/29 08:19:30;;;;;;;8.75;1.70;;;16.70;99.90;;;;;;4953624;28;20039;-66
2021/08/29 08:21:56;;;;;;;9.75;1.92;;;16.60;99.90;;;;;;4953858;29;20039;-67
2021/08/29 08:24:21;;;;;;;10.70;2.30;;;16.40;99.90;;;;;;4954268;28;20062;-66
2021/08/29 08:26:47;;;;;;;9.40;2.05;;;16.30;99.90;;;;;;4952244;28;20063;-66
2021/08/29 08:29:12;;;;;;;9.02;1.83;;;16.30;99.90;;;;;;4951910;28;20485;-67
2021/08/29 08:31:38;;;;;;;13.23;1.95;;;16.10;99.90;;;;;;4953675;28;20098;-68
2021/08/29 08:34:03;;;;;;;7.50;1.63;;;16.10;99.90;;;;;;4952243;28;20386;-67
2021/08/29 08:36:29;;;;;;;10.35;1.70;;;16.10;99.90;;;;;;4952436;28;20042;-67
2021/08/29 08:38:54;;;;;;;9.95;1.50;;;16.10;99.90;;;;;;4954367;29;20078;-67
2021/08/29 08:41:20;;;;;;;10.30;1.90;;;16.10;99.90;;;;;;4953854;28;20089;-67
2021/08/29 08:43:46;;;;;;;11.88;2.33;;;16.00;99.90;;;;;;4953325;29;20493;-67
2021/08/29 08:46:12;;;;;;;12.05;2.03;;;16.00;99.90;;;;;;4951926;28;20031;-67
2021/08/29 08:48:39;;;;;;;10.60;2.22;;;16.00;99.90;;;;;;4953054;28;20102;-67
2021/08/29 08:51:10;;;;;;;10.13;1.75;;;16.00;99.90;;;;;;4953837;28;20075;-73
2021/08/29 08:53:39;;;;;;;10.07;1.65;;;16.00;99.90;;;;;;4953653;28;20034;-70
2021/08/29 08:56:05;;;;;;;12.95;2.17;;;16.00;99.90;;;;;;4953161;28;20031;-71
2021/08/29 08:58:39;;;;;;;9.45;1.98;;;16.00;99.90;;;;;;4949210;28;20057;-71
2021/08/29 09:01:06;;;;;;;11.38;1.92;;;16.00;99.90;;;;;;4952770;28;20122;-70
2021/08/29 09:03:33;;;;;;;10.60;1.90;;;15.90;99.90;;;;;;4946274;28;20042;-71
2021/08/29 09:05:58;;;;;;;7.63;2.20;;;16.00;99.90;;;;;;4953940;29;20031;-71
2021/08/29 09:08:24;;;;;;;9.07;1.60;;;15.90;99.90;;;;;;4952925;28;20078;-70
2021/08/29 09:10:49;;;;;;;5.10;1.20;;;15.90;99.90;;;;;;4953034;28;20103;-69
2021/08/29 09:13:16;;;;;;;7.90;1.63;;;15.90;99.90;;;;;;4953872;28;20031;-69
2021/08/29 09:15:42;;;;;;;9.95;1.50;;;15.80;99.90;;;;;;4943792;29;20055;-70
2021/08/29 09:18:10;;;;;;;6.63;1.52;;;15.70;99.90;;;;;;4950594;29;20448;-70
2021/08/29 09:20:38;;;;;;;5.90;1.30;;;15.70;99.90;;;;;;4953091;29;20038;-71
2021/08/29 09:23:06;;;;;;;11.32;1.50;;;15.70;99.90;;;;;;4952952;29;20378;-70
2021/08/29 09:25:41;;;;;;;9.45;1.73;;;15.70;99.90;;;;;;4953089;28;20027;-71
2021/08/29 09:28:25;;;;;;;11.77;2.15;;;15.70;99.90;;;;;;4976147;28;20028;-69
2021/08/29 09:30:52;;;;;;;6.95;1.38;;;15.70;99.90;;;;;;4952991;29;20042;-70
2021/08/29 09:33:21;;;;;;;6.43;1.27;;;15.70;99.90;;;;;;4953045;29;20047;-70
2021/08/29 09:35:53;;;;;;;10.60;2.03;;;15.70;99.90;;;;;;4948604;28;20042;-71
2021/08/29 09:38:18;;;;;;;11.70;2.55;;;15.70;99.90;;;;;;4948508;29;20094;-71
2021/08/29 09:40:44;;;;;;;8.02;1.98;;;15.70;99.90;;;;;;4953062;28;20036;-70
2021/08/29 09:43:10;;;;;;;9.02;2.17;;;15.70;99.90;;;;;;4950512;28;20032;-70
2021/08/29 09:45:41;;;;;;;7.43;1.38;;;15.80;99.90;;;;;;4953167;28;20032;-70
2021/08/29 09:48:13;;;;;;;11.18;1.80;;;15.80;99.90;;;;;;4952481;28;20118;-70
2021/08/29 09:50:41;;;;;;;7.85;1.17;;;15.80;99.90;;;;;;4953029;28;20027;-69
2021/08/29 09:53:20;;;;;;;9.13;1.65;;;15.80;99.90;;;;;;4952112;29;20058;-70
2021/08/29 09:55:47;;;;;;;8.77;1.70;;;15.80;99.90;;;;;;4953038;28;20705;-69
2021/08/29 09:58:32;;;;;;;5.95;1.42;;;15.80;99.90;;;;;;4947767;28;20035;-69
2021/08/29 10:01:17;;;;;;;9.35;1.98;;;15.80;99.90;;;;;;4941609;28;20462;-69
2021/08/29 10:03:51;;;;;;;9.25;1.75;;;15.80;99.90;;;;;;4944180;28;20041;-69
2021/08/29 10:06:27;;;;;;;9.27;1.83;;;15.80;99.90;;;;;;4941177;29;20046;-69
2021/08/29 10:09:00;;;;;;;11.80;1.70;;;15.80;99.90;;;;;;4935247;29;20031;-69
2021/08/29 10:11:30;;;;;;;9.63;1.67;;;15.80;99.90;;;;;;4940740;28;20035;-69
2021/08/29 10:13:57;;;;;;;8.45;1.60;;;15.80;99.90;;;;;;4950695;29;20507;-69
2021/08/29 10:16:24;;;;;;;10.07;2.03;;;15.80;99.90;;;;;;4952970;28;20028;-69
2021/08/29 10:18:52;;;;;;;10.38;1.88;;;15.90;99.90;;;;;;4955473;28;20082;-69
2021/08/29 10:21:22;;;;;;;12.68;2.05;;;15.90;99.90;;;;;;4954641;28;20378;-69
2021/08/29 10:23:51;;;;;;;9.70;2.20;;;16.00;99.90;;;;;;4956030;28;20027;-69
2021/08/29 10:26:18;;;;;;;9.55;1.73;;;16.00;99.90;;;;;;4952289;28;20031;-69
2021/08/29 10:28:47;;;;;;;8.05;1.85;;;15.90;99.90;;;;;;4953343;28;20028;-70
2021/08/29 10:31:18;;;;;;;12.15;2.75;;;15.90;99.90;;;;;;4955540;28;20046;-69
2021/08/29 10:33:48;;;;;;;12.98;2.05;;;15.90;99.90;;;;;;4946386;28;20024;-70
2021/08/29 10:36:15;;;;;;;14.80;2.65;;;15.90;99.90;;;;;;4949226;29;20035;-70
2021/08/29 10:38:41;;;;;;;12.10;2.00;;;15.80;99.90;;;;;;4954414;28;20110;-70
2021/08/29 10:41:07;;;;;;;13.38;2.63;;;15.80;99.90;;;;;;4952186;29;20106;-70
2021/08/29 10:43:36;;;;;;;10.48;1.95;;;15.80;99.90;;;;;;4953024;28;20492;-70
2021/08/29 10:46:02;;;;;;;8.95;2.25;;;15.70;99.90;;;;;;4955760;28;20035;-70
2021/08/29 10:48:32;;;;;;;12.52;2.67;;;15.70;99.90;;;;;;4961661;28;20071;-71
2021/08/29 10:50:58;;;;;;;7.53;2.10;;;15.70;99.90;;;;;;4953114;28;20031;-72
2021/08/29 10:53:32;;;;;;;10.65;2.40;;;15.80;99.90;;;;;;4954633;28;20042;-70
2021/08/29 10:56:19;;;;;;;7.10;2.38;;;15.80;99.90;;;;;;4955012;28;20031;-70
2021/08/29 10:58:47;;;;;;;12.20;1.90;;;15.80;99.90;;;;;;4954857;28;20031;-71
2021/08/29 11:01:34;;;;;;;12.85;2.13;;;15.80;99.90;;;;;;4953410;28;20470;-69
2021/08/29 11:04:32;;;;;;;6.90;1.45;;;15.80;99.90;;;;;;4952960;28;20027;-68
2021/08/29 11:06:59;;;;;;;9.68;1.75;;;15.90;99.90;;;;;;4925558;29;20494;-70
2021/08/29 11:09:35;;;;;;;4.95;1.55;;;16.00;99.90;;;;;;4954254;28;20039;-69
2021/08/29 11:12:12;;;;;;;9.60;1.70;;;16.00;99.90;;;;;;4952435;29;20019;-70
2021/08/29 11:14:47;;;;;;;8.70;1.98;;;16.00;99.90;;;;;;4954266;28;20031;-70
2021/08/29 11:17:35;;;;;;;9.30;1.90;;;16.10;99.90;;;;;;4947962;28;20046;-68
2021/08/29 11:20:01;;;;;;;9.30;1.40;;;16.10;99.90;;;;;;4952619;28;20512;-70
2021/08/29 11:22:28;;;;;;;10.60;2.10;;;16.10;99.90;;;;;;4953234;28;20027;-70
2021/08/29 11:25:05;;;;;;;8.30;2.10;;;16.10;99.90;;;;;;4954706;28;20028;-70
2021/08/29 11:27:34;;;;;;;11.80;2.70;;;16.20;99.90;;;;;;4980961;28;20034;-69
2021/08/29 11:30:13;;;;;;;9.27;1.88;;;16.20;99.90;;;;;;4950218;29;20023;-70
2021/08/29 11:32:47;;;;;;;5.20;2.13;;;16.20;99.90;;;;;;4934491;29;20047;-68
2021/08/29 11:35:14;;;;;;;12.48;2.42;;;16.20;99.90;;;;;;4954318;28;20035;-70
2021/08/29 11:37:40;;;;;;;7.15;2.15;;;16.20;99.90;;;;;;4952011;28;20031;-69
2021/08/29 11:40:09;;;;;;;8.20;2.25;;;16.20;99.90;;;;;;4951057;28;20114;-68
2021/08/29 11:42:35;;;;;;;9.20;2.65;;;16.20;99.90;;;;;;4951937;28;20089;-70
2021/08/29 11:45:01;;;;;;;10.05;2.35;;;16.30;99.90;;;;;;4952787;29;20110;-70
2021/08/29 11:47:38;;;;;;;7.20;2.47;;;16.30;99.90;;;;;;4953425;28;20027;-70
2021/08/29 11:50:06;;;;;;;8.52;2.38;;;16.40;99.90;;;;;;4951672;29;20019;-68
2021/08/29 11:52:35;;;;;;;13.57;3.03;;;16.30;99.90;;;;;;4950556;28;20078;-68
2021/08/29 11:55:12;;;;;;;6.55;1.98;;;16.40;99.90;;;;;;4952901;29;20035;-67
2021/08/29 11:57:52;;;;;;;8.07;2.13;;;16.30;99.90;;;;;;4953712;28;20027;-67
2021/08/29 12:00:20;;;;;;;5.78;2.03;;;16.40;99.90;;;;;;4953043;29;20070;-67
2021/08/29 12:02:46;;;;;;;7.55;1.80;;;16.40;99.90;;;;;;4953302;28;20035;-67
2021/08/29 12:05:14;;;;;;;10.85;2.20;;;16.40;99.90;;;;;;4954049;28;20035;-67
2021/08/29 12:07:56;;;;;;;6.88;1.83;;;16.40;99.90;;;;;;4947928;29;20071;-67
2021/08/29 12:10:26;;;;;;;6.57;2.00;;;16.50;99.90;;;;;;4951359;28;20023;-67
2021/08/29 12:12:53;;;;;;;8.25;1.90;;;16.50;99.90;;;;;;4954566;28;20362;-67
2021/08/29 12:15:19;;;;;;;6.18;2.00;;;16.50;99.90;;;;;;4954242;28;20104;-67
2021/08/29 12:17:48;;;;;;;8.27;1.90;;;16.40;99.90;;;;;;4953870;28;20114;-67
2021/08/29 12:20:14;;;;;;;10.02;1.90;;;16.40;99.90;;;;;;4954472;28;20035;-67
2021/08/29 12:22:40;;;;;;;5.72;1.48;;;16.50;99.90;;;;;;4949184;28;20047;-67
2021/08/29 12:25:06;;;;;;;4.93;1.48;;;16.50;99.90;;;;;;4945281;29;20561;-67
2021/08/29 12:27:32;;;;;;;8.93;2.67;;;16.50;99.90;;;;;;4953179;28;20023;-67
2021/08/29 12:30:00;;;;;;;4.90;1.70;;;16.50;99.90;;;;;;4954530;28;20037;-66
2021/08/29 12:32:28;;;;;;;8.00;1.40;;;16.50;99.90;;;;;;4953447;28;20051;-66
2021/08/29 12:35:01;;;;;;;9.23;1.80;;;16.50;99.90;;;;;;4954489;28;20119;-66
2021/08/29 12:37:29;;;;;;;4.95;1.98;;;16.60;99.90;;;;;;4953635;28;20041;-66
2021/08/29 12:40:00;;;;;;;6.95;1.33;;;16.50;99.90;;;;;;4953787;29;20508;-66
2021/08/29 12:42:28;;;;;;;5.05;1.38;;;16.60;99.90;;;;;;4953902;29;20042;-66
2021/08/29 12:44:57;;;;;;;3.80;1.23;;;16.60;99.90;;;;;;4953957;28;20122;-66